createdAt,value
2019-05-13T00:00:27.950Z,1.77
2019-05-13T00:02:57.510Z,1.80
2019-05-13T00:05:26.422Z,1.97
2019-05-13T00:07:55.585Z,2.30
2019-05-13T00:10:25.232Z,1.80
2019-05-13T00:12:55.242Z,2.00
2019-05-13T00:15:34.005Z,1.90
2019-05-13T00:18:04.151Z,2.00
2019-05-13T00:20:34.081Z,2.33
2019-05-13T00:23:04.250Z,2.03
2019-05-13T00:25:34.193Z,2.30
2019-05-13T00:28:04.197Z,2.17
2019-05-13T00:30:34.335Z,2.20
2019-05-13T00:33:04.010Z,1.83
2019-05-13T00:35:34.099Z,2.80
2019-05-13T00:38:04.181Z,2.00
2019-05-13T00:40:33.795Z,2.00
2019-05-13T00:43:04.074Z,2.20
2019-05-13T00:45:34.001Z,2.40
2019-05-13T00:48:05.158Z,2.50
2019-05-13T00:50:35.288Z,2.47
2019-05-13T00:53:04.605Z,2.03
2019-05-13T00:55:34.624Z,2.50
2019-05-13T00:58:07.742Z,2.40
2019-05-13T01:00:37.485Z,2.20
2019-05-13T01:03:07.034Z,2.00
2019-05-13T01:05:36.603Z,1.93
2019-05-13T01:08:05.780Z,2.20
2019-05-13T01:10:35.797Z,1.90
2019-05-13T01:13:05.119Z,2.10
2019-05-13T01:15:34.822Z,2.10
2019-05-13T01:18:16.303Z,2.53
2019-05-13T01:20:45.338Z,1.77
2019-05-13T01:23:25.403Z,2.23
2019-05-13T01:25:58.524Z,2.50
2019-05-13T01:28:28.463Z,2.30
2019-05-13T01:30:59.053Z,2.43
2019-05-13T01:33:28.598Z,2.33
2019-05-13T01:35:58.247Z,2.63
2019-05-13T01:38:28.070Z,2.43
2019-05-13T01:40:58.740Z,2.40
2019-05-13T01:43:28.748Z,2.53
2019-05-13T01:45:58.390Z,2.17
2019-05-13T01:50:53.339Z,2.57
2019-05-13T01:53:29.932Z,2.30
2019-05-13T01:55:59.788Z,2.57
2019-05-13T01:58:29.262Z,2.20
2019-05-13T02:01:00.321Z,2.53
2019-05-13T02:03:36.743Z,2.40
2019-05-13T02:06:05.621Z,3.60
2019-05-13T02:08:35.568Z,2.60
2019-05-13T02:11:09.795Z,2.73
2019-05-13T02:13:41.109Z,2.43
2019-05-13T02:16:10.687Z,2.13
2019-05-13T02:18:41.354Z,2.73
2019-05-13T02:21:13.928Z,3.20
2019-05-13T02:23:44.381Z,2.40
2019-05-13T02:26:14.293Z,2.70
2019-05-13T02:28:43.634Z,2.60
2019-05-13T02:31:21.226Z,2.70
2019-05-13T02:33:43.874Z,3.07
2019-05-13T02:36:13.777Z,2.40
2019-05-13T02:38:43.225Z,2.60
2019-05-13T02:41:13.643Z,2.87
2019-05-13T02:43:45.363Z,2.80
2019-05-13T02:46:13.862Z,2.67
2019-05-13T02:48:45.217Z,2.73
2019-05-13T02:51:24.090Z,2.80
2019-05-13T02:53:53.633Z,2.40
2019-05-13T02:56:22.798Z,2.77
2019-05-13T02:58:52.816Z,2.87
2019-05-13T03:01:22.670Z,3.23
2019-05-13T03:03:52.965Z,2.90
2019-05-13T03:06:43.544Z,3.07
2019-05-13T03:09:12.795Z,2.53
2019-05-13T03:11:53.613Z,3.47
2019-05-13T03:14:23.829Z,2.90
2019-05-13T03:17:03.178Z,2.27
2019-05-13T03:19:33.425Z,4.13
2019-05-13T03:22:06.980Z,2.90
2019-05-13T03:24:36.849Z,2.97
2019-05-13T03:27:06.658Z,3.10
2019-05-13T03:29:35.814Z,3.20
2019-05-13T03:32:07.249Z,3.50
2019-05-13T03:34:36.812Z,3.80
2019-05-13T03:37:08.231Z,2.87
2019-05-13T03:39:47.703Z,3.83
2019-05-13T03:42:17.347Z,3.60
2019-05-13T03:44:47.971Z,3.37
2019-05-13T03:47:23.072Z,3.20
2019-05-13T03:49:53.302Z,3.43
2019-05-13T03:52:22.806Z,3.33
2019-05-13T03:54:52.397Z,3.83
2019-05-13T03:57:23.229Z,3.50
2019-05-13T03:59:52.821Z,3.40
2019-05-13T04:02:35.110Z,3.03
2019-05-13T04:05:05.158Z,3.77
2019-05-13T04:07:35.005Z,3.37
2019-05-13T04:10:05.028Z,2.97
2019-05-13T04:12:34.682Z,3.30
2019-05-13T04:15:13.756Z,3.33
2019-05-13T04:17:46.950Z,3.10
2019-05-13T04:20:16.502Z,4.27
2019-05-13T04:22:46.473Z,3.87
2019-05-13T04:25:16.787Z,3.40
2019-05-13T04:27:46.363Z,4.23
2019-05-13T04:30:15.558Z,3.27
2019-05-13T04:32:53.027Z,4.40
2019-05-13T04:35:28.311Z,4.13
2019-05-13T04:38:10.198Z,4.23
2019-05-13T04:40:38.413Z,4.00
2019-05-13T04:43:07.958Z,3.77
2019-05-13T04:45:38.081Z,3.60
2019-05-13T04:48:07.635Z,3.70
2019-05-13T04:50:36.510Z,3.90
2019-05-13T04:53:06.083Z,3.90
2019-05-13T04:55:44.879Z,3.50
2019-05-13T04:58:13.893Z,3.67
2019-05-13T05:01:04.803Z,5.17
2019-05-13T05:03:42.060Z,3.40
2019-05-13T05:06:42.146Z,3.27
2019-05-13T05:09:29.516Z,3.60
2019-05-13T05:12:23.082Z,3.93
2019-05-13T05:15:28.591Z,3.87
2019-05-13T05:18:36.174Z,3.63
2019-05-13T05:21:08.673Z,3.70
2019-05-13T05:24:23.569Z,3.63
2019-05-13T05:27:45.902Z,3.43
2019-05-13T05:30:51.829Z,3.57
2019-05-13T05:34:11.449Z,3.80
2019-05-13T05:37:04.963Z,3.27
2019-05-13T05:39:36.048Z,3.53
2019-05-13T05:42:11.513Z,3.47
2019-05-13T05:44:44.566Z,3.63
2019-05-13T05:47:17.634Z,3.03
2019-05-13T05:49:46.702Z,3.90
2019-05-13T05:52:17.298Z,3.80
2019-05-13T05:54:53.354Z,3.60
2019-05-13T05:57:31.634Z,3.93
2019-05-13T06:00:02.777Z,3.70
2019-05-13T06:02:33.460Z,3.23
2019-05-13T06:05:03.507Z,3.97
2019-05-13T06:07:35.393Z,3.50
2019-05-13T06:10:08.108Z,3.47
2019-05-13T06:12:38.680Z,3.87
2019-05-13T06:15:07.678Z,4.07
2019-05-13T06:17:37.432Z,3.33
2019-05-13T06:20:07.231Z,4.10
2019-05-13T06:22:36.105Z,3.30
2019-05-13T06:25:06.367Z,3.30
2019-05-13T06:27:36.070Z,3.20
2019-05-13T06:30:05.949Z,3.37
2019-05-13T06:32:35.521Z,3.33
2019-05-13T06:35:04.926Z,3.30
2019-05-13T06:37:41.474Z,3.33
2019-05-13T06:40:05.810Z,3.30
2019-05-13T06:42:35.738Z,2.93
2019-05-13T06:45:05.438Z,2.77
2019-05-13T06:47:36.290Z,2.90
2019-05-13T06:50:06.675Z,3.30
2019-05-13T06:52:35.600Z,3.27
2019-05-13T06:55:05.282Z,3.37
2019-05-13T06:57:34.850Z,3.30
2019-05-13T07:00:04.958Z,3.13
2019-05-13T07:02:34.530Z,2.93
2019-05-13T07:05:04.865Z,3.40
2019-05-13T07:07:34.568Z,3.27
2019-05-13T07:10:03.601Z,3.50
2019-05-13T07:12:41.156Z,3.20
2019-05-13T07:15:11.692Z,3.37
2019-05-13T07:17:41.643Z,3.23
2019-05-13T07:20:11.887Z,3.23
2019-05-13T07:22:42.260Z,3.00
2019-05-13T07:25:12.043Z,3.37
2019-05-13T07:27:42.428Z,3.27
2019-05-13T07:30:13.942Z,2.90
2019-05-13T07:32:43.509Z,3.67
2019-05-13T07:35:14.863Z,3.23
2019-05-13T07:37:44.641Z,3.00
2019-05-13T07:40:14.554Z,3.03
2019-05-13T07:42:54.502Z,3.40
2019-05-13T07:45:42.382Z,3.23
2019-05-13T07:48:22.716Z,3.93
2019-05-13T07:50:53.071Z,4.10
2019-05-13T07:53:22.301Z,3.60
2019-05-13T07:55:52.476Z,3.67
2019-05-13T07:58:23.001Z,3.60
2019-05-13T08:00:52.336Z,3.10
2019-05-13T08:03:21.524Z,3.17
2019-05-13T08:05:51.409Z,3.87
2019-05-13T08:08:24.520Z,3.30
2019-05-13T08:10:52.072Z,3.47
2019-05-13T08:13:22.518Z,2.90
2019-05-13T08:15:54.423Z,3.10
2019-05-13T08:18:22.284Z,2.60
2019-05-13T08:20:57.756Z,3.23
2019-05-13T08:23:23.145Z,3.00
2019-05-13T08:25:52.062Z,2.60
2019-05-13T08:28:22.528Z,3.20
2019-05-13T08:30:52.044Z,2.73
2019-05-13T08:33:22.620Z,3.13
2019-05-13T08:35:58.724Z,2.77
2019-05-13T08:38:25.437Z,2.50
2019-05-13T08:40:54.678Z,3.00
2019-05-13T08:43:24.255Z,2.90
2019-05-13T08:46:12.474Z,2.70
2019-05-13T08:48:42.916Z,2.30
2019-05-13T08:51:11.884Z,2.90
2019-05-13T08:53:42.464Z,2.20
2019-05-13T08:56:12.185Z,2.70
2019-05-13T08:58:52.063Z,2.30
2019-05-13T09:01:22.717Z,2.33
2019-05-13T09:03:52.725Z,2.40
2019-05-13T09:06:42.094Z,2.60
2019-05-13T09:09:11.616Z,2.70
2019-05-13T09:11:42.257Z,2.17
2019-05-13T09:14:11.930Z,2.50
2019-05-13T09:16:41.997Z,2.93
2019-05-13T09:19:15.765Z,3.00
2019-05-13T09:21:42.759Z,2.57
2019-05-13T09:24:24.416Z,2.60
2019-05-13T09:26:46.085Z,2.97
2019-05-13T09:29:15.484Z,2.67
2019-05-13T09:31:45.266Z,2.70
2019-05-13T09:34:14.829Z,2.73
2019-05-13T09:39:32.471Z,2.20
2019-05-13T09:42:03.038Z,2.90
2019-05-13T09:44:32.871Z,3.07
2019-05-13T09:47:03.004Z,2.67
2019-05-13T09:49:33.225Z,2.33
2019-05-13T09:52:02.959Z,3.07
2019-05-13T09:54:34.340Z,2.50
2019-05-13T09:57:03.941Z,2.53
2019-05-13T09:59:32.832Z,2.70
2019-05-13T10:02:03.419Z,2.87
2019-05-13T10:04:32.456Z,2.50
2019-05-13T10:07:02.679Z,2.80
2019-05-13T10:09:33.026Z,3.27
2019-05-13T10:12:05.788Z,3.23
2019-05-13T10:14:43.315Z,3.23
2019-05-13T10:17:13.135Z,2.37
2019-05-13T10:19:46.135Z,1.90
2019-05-13T10:22:16.193Z,2.83
2019-05-13T10:24:45.892Z,2.50
2019-05-13T10:27:18.936Z,2.50
2019-05-13T10:29:46.021Z,1.97
2019-05-13T10:32:15.709Z,1.97
2019-05-13T10:34:45.917Z,2.23
2019-05-13T10:37:15.991Z,2.40
2019-05-13T10:39:44.986Z,1.93
2019-05-13T10:42:13.969Z,3.33
2019-05-13T10:44:43.545Z,2.50
2019-05-13T10:47:14.601Z,2.57
2019-05-13T10:49:44.180Z,2.47
2019-05-13T10:52:13.387Z,1.93
2019-05-13T10:54:42.305Z,2.20
2019-05-13T10:57:13.665Z,2.23
2019-05-13T10:59:42.478Z,2.10
2019-05-13T11:02:13.372Z,2.30
2019-05-13T11:04:43.537Z,2.03
2019-05-13T11:07:13.646Z,2.20
2019-05-13T11:09:43.205Z,1.90
2019-05-13T11:12:12.564Z,1.57
2019-05-13T11:14:50.864Z,2.60
2019-05-13T11:17:25.663Z,1.80
2019-05-13T11:19:48.695Z,1.90
2019-05-13T11:22:24.645Z,2.00
2019-05-13T11:24:51.824Z,2.80
2019-05-13T11:27:23.296Z,1.97
2019-05-13T11:29:52.333Z,2.30
2019-05-13T11:32:22.221Z,1.80
2019-05-13T11:34:53.087Z,2.13
2019-05-13T11:37:32.046Z,2.10
2019-05-13T11:40:02.820Z,2.27
2019-05-13T11:42:32.891Z,2.00
2019-05-13T11:45:02.513Z,1.83
2019-05-13T11:47:32.273Z,1.97
2019-05-13T11:50:02.590Z,1.80
2019-05-13T11:52:31.814Z,1.77
2019-05-13T11:55:02.644Z,1.80
2019-05-13T11:57:32.530Z,1.70
2019-05-13T12:00:02.813Z,2.13
2019-05-13T12:02:50.648Z,1.73
2019-05-13T12:05:16.116Z,1.90
2019-05-13T12:07:45.698Z,2.13
2019-05-13T12:10:15.378Z,2.03
2019-05-13T12:12:44.969Z,1.90
2019-05-13T12:15:26.941Z,2.37
2019-05-13T12:17:45.164Z,2.07
2019-05-13T12:20:14.741Z,2.57
2019-05-13T12:22:44.399Z,2.10
2019-05-13T12:25:14.049Z,2.60
2019-05-13T12:27:43.861Z,2.30
2019-05-13T12:30:12.756Z,2.17
2019-05-13T12:32:43.786Z,2.17
2019-05-13T12:35:13.953Z,2.40
2019-05-13T12:37:43.043Z,2.13
2019-05-13T12:40:13.357Z,2.30
2019-05-13T12:42:46.929Z,2.30
2019-05-13T12:45:15.176Z,2.10
2019-05-13T12:47:44.755Z,2.50
2019-05-13T12:50:14.982Z,2.50
2019-05-13T12:52:44.679Z,2.20
2019-05-13T12:55:14.438Z,2.50
2019-05-13T12:57:43.601Z,2.37
2019-05-13T13:00:13.354Z,2.10
2019-05-13T13:02:50.042Z,3.20
2019-05-13T13:05:20.021Z,2.20
2019-05-13T13:08:12.187Z,2.10
2019-05-13T13:10:17.117Z,2.47
2019-05-13T13:12:46.023Z,2.30
2019-05-13T13:15:35.803Z,2.83
2019-05-13T13:17:46.388Z,2.37
2019-05-13T13:20:16.403Z,2.63
2019-05-13T13:22:45.993Z,2.43
2019-05-13T13:25:15.684Z,2.90
2019-05-13T13:28:08.851Z,2.63
2019-05-13T13:30:17.246Z,2.17
2019-05-13T13:32:46.397Z,2.77
2019-05-13T13:35:15.730Z,2.57
2019-05-13T13:37:46.224Z,2.43
2019-05-13T13:40:24.318Z,2.40
2019-05-13T13:42:46.696Z,2.50
2019-05-13T13:45:23.055Z,3.17
2019-05-13T13:48:03.360Z,2.47
2019-05-13T13:50:25.110Z,2.67
2019-05-13T13:52:54.856Z,2.43
2019-05-13T13:55:25.994Z,2.57
2019-05-13T13:57:56.880Z,2.33
2019-05-13T14:00:38.133Z,2.70
2019-05-13T14:02:57.211Z,2.67
2019-05-13T14:05:26.096Z,2.47
2019-05-13T14:07:55.648Z,2.83
2019-05-13T14:10:25.326Z,2.37
2019-05-13T14:12:55.137Z,2.70
2019-05-13T14:15:24.696Z,2.87
2019-05-13T14:17:54.175Z,2.57
2019-05-13T14:20:24.322Z,2.30
2019-05-13T14:22:57.501Z,2.37
2019-05-13T14:25:25.017Z,2.20
2019-05-13T14:27:54.818Z,3.00
2019-05-13T14:30:24.398Z,2.27
2019-05-13T14:33:02.360Z,2.63
2019-05-13T14:35:31.411Z,2.83
2019-05-13T14:38:03.200Z,2.70
2019-05-13T14:40:33.053Z,2.57
2019-05-13T14:43:03.656Z,2.70
2019-05-13T14:45:33.831Z,3.33
2019-05-13T14:48:17.013Z,2.50
2019-05-13T14:50:46.578Z,2.50
2019-05-13T14:53:15.690Z,3.23
2019-05-13T14:55:45.702Z,2.40
2019-05-13T14:58:15.468Z,2.20
2019-05-13T15:00:45.490Z,3.23
2019-05-13T15:03:15.067Z,2.40
2019-05-13T15:05:45.114Z,2.73
2019-05-13T15:08:14.672Z,2.57
2019-05-13T15:10:44.285Z,2.63
2019-05-13T15:13:13.874Z,2.40
2019-05-13T15:15:43.045Z,2.23
2019-05-13T15:18:12.611Z,2.50
2019-05-13T15:20:42.670Z,2.40
2019-05-13T15:23:12.082Z,2.63
2019-05-13T15:25:42.057Z,2.57
2019-05-13T15:28:12.084Z,2.43
2019-05-13T15:30:42.483Z,2.70
2019-05-13T15:33:21.558Z,2.90
2019-05-13T15:35:52.040Z,2.60
2019-05-13T15:38:21.864Z,2.50
2019-05-13T15:40:52.172Z,2.50
2019-05-13T15:43:22.446Z,2.30
2019-05-13T15:45:51.997Z,2.20
2019-05-13T15:48:31.574Z,3.03
2019-05-13T15:51:02.026Z,2.50
2019-05-13T15:53:32.343Z,2.27
2019-05-13T15:56:02.619Z,2.57
2019-05-13T15:58:39.469Z,2.60
2019-05-13T16:01:03.195Z,2.40
2019-05-13T16:03:34.857Z,2.50
2019-05-13T16:06:04.504Z,2.27
2019-05-13T16:08:34.381Z,2.40
2019-05-13T16:11:12.716Z,2.30
2019-05-13T16:13:42.600Z,2.13
2019-05-13T16:16:22.040Z,2.70
2019-05-13T16:18:51.505Z,2.40
2019-05-13T16:21:21.229Z,2.53
2019-05-13T16:23:58.510Z,2.67
2019-05-13T16:26:28.244Z,2.00
2019-05-13T16:31:45.993Z,2.13
2019-05-13T16:34:15.538Z,2.30
2019-05-13T16:36:54.086Z,3.03
2019-05-13T16:39:23.765Z,2.77
2019-05-13T16:41:52.634Z,2.13
2019-05-13T16:44:22.655Z,2.47
2019-05-13T16:46:56.089Z,2.63
2019-05-13T16:49:24.999Z,2.30
2019-05-13T16:51:53.914Z,2.30
2019-05-13T16:54:23.474Z,2.17
2019-05-13T16:56:55.329Z,2.03
2019-05-13T16:59:28.409Z,2.50
2019-05-13T17:02:15.497Z,2.20
2019-05-13T17:04:45.092Z,2.03
2019-05-13T17:07:22.611Z,2.27
2019-05-13T17:09:52.531Z,2.23
2019-05-13T17:12:23.447Z,2.17
2019-05-13T17:14:52.592Z,2.27
2019-05-13T17:17:22.093Z,2.07
2019-05-13T17:19:59.477Z,2.53
2019-05-13T17:22:28.391Z,2.03
2019-05-13T17:25:02.551Z,2.07
2019-05-13T17:27:31.950Z,1.90
2019-05-13T17:30:02.117Z,2.00
2019-05-13T17:32:37.287Z,2.37
2019-05-13T17:35:02.255Z,2.00
2019-05-13T17:37:34.399Z,2.60
2019-05-13T17:40:03.814Z,2.27
2019-05-13T17:42:32.696Z,2.43
2019-05-13T17:45:02.622Z,2.27
2019-05-13T17:47:32.190Z,2.30
2019-05-13T17:50:02.960Z,2.20
2019-05-13T17:52:31.899Z,2.17
2019-05-13T17:55:01.956Z,1.97
2019-05-13T17:57:33.368Z,1.80
2019-05-13T18:00:02.259Z,2.00
2019-05-13T18:02:31.833Z,2.40
2019-05-13T18:05:01.997Z,3.00
2019-05-13T18:07:33.773Z,5.77
2019-05-13T18:10:03.049Z,3.57
2019-05-13T18:12:31.970Z,2.60
2019-05-13T18:15:02.431Z,2.10
2019-05-13T18:17:32.118Z,2.13
2019-05-13T18:20:02.466Z,2.93
2019-05-13T18:22:42.076Z,2.13
2019-05-13T18:25:22.286Z,2.03
2019-05-13T18:27:52.159Z,1.90
2019-05-13T18:30:22.197Z,2.10
2019-05-13T18:32:51.769Z,2.43
2019-05-13T18:35:25.763Z,1.90
2019-05-13T18:37:55.609Z,1.60
2019-05-13T18:40:25.194Z,1.60
2019-05-13T18:42:54.245Z,2.00
2019-05-13T18:45:23.438Z,1.60
2019-05-13T18:47:52.403Z,1.70
2019-05-13T18:50:31.382Z,2.10
2019-05-13T18:53:01.897Z,1.67
2019-05-13T18:55:31.493Z,1.60
2019-05-13T18:58:01.374Z,2.10
2019-05-13T19:00:32.253Z,2.60
2019-05-13T19:03:01.596Z,1.80
2019-05-13T19:05:31.724Z,2.00
2019-05-13T19:08:01.889Z,1.93
2019-05-13T19:10:35.223Z,2.03
2019-05-13T19:13:12.606Z,1.83
2019-05-13T19:15:42.550Z,2.03
2019-05-13T19:18:12.392Z,1.60
2019-05-13T19:20:41.944Z,1.93
2019-05-13T19:23:11.814Z,1.70
2019-05-13T19:25:42.743Z,1.80
2019-05-13T19:28:12.056Z,1.70
2019-05-13T19:30:42.298Z,1.70
2019-05-13T19:33:12.260Z,2.03
2019-05-13T19:35:44.103Z,1.97
2019-05-13T19:38:13.052Z,1.70
2019-05-13T19:40:42.757Z,2.00
2019-05-13T19:43:11.801Z,2.07
2019-05-13T19:45:44.077Z,1.90
2019-05-13T19:48:21.826Z,2.00
2019-05-13T19:50:52.098Z,1.60
2019-05-13T19:53:23.174Z,1.63
2019-05-13T19:55:52.104Z,2.00
2019-05-13T19:58:21.659Z,1.90
2019-05-13T20:00:51.624Z,2.00
2019-05-13T20:03:28.415Z,1.80
2019-05-13T20:05:57.982Z,1.80
2019-05-13T20:08:29.133Z,2.20
2019-05-13T20:10:58.686Z,1.70
2019-05-13T20:13:28.351Z,2.00
2019-05-13T20:16:01.226Z,2.47
2019-05-13T20:18:35.274Z,2.00
2019-05-13T20:21:04.666Z,2.23
2019-05-13T20:23:36.846Z,2.53
2019-05-13T20:26:05.757Z,1.80
2019-05-13T20:28:36.359Z,1.90
2019-05-13T20:31:05.245Z,1.63
2019-05-13T20:33:39.634Z,2.17
2019-05-13T20:36:08.063Z,2.27
2019-05-13T20:38:38.113Z,2.10
2019-05-13T20:41:08.184Z,3.00
2019-05-13T20:43:37.792Z,2.00
2019-05-13T20:46:06.747Z,2.20
2019-05-13T20:48:35.718Z,2.23
2019-05-13T20:51:05.461Z,2.50
2019-05-13T20:53:35.366Z,2.23
2019-05-13T20:56:07.915Z,2.97
2019-05-13T20:58:38.642Z,2.30
2019-05-13T21:01:07.908Z,2.20
2019-05-13T21:03:42.008Z,2.30
2019-05-13T21:06:11.772Z,1.97
2019-05-13T21:08:42.140Z,2.40
2019-05-13T21:11:11.665Z,2.60
2019-05-13T21:13:51.734Z,2.43
2019-05-13T21:16:21.921Z,2.13
2019-05-13T21:18:52.641Z,2.00
2019-05-13T21:21:23.007Z,2.00
2019-05-13T21:24:01.559Z,2.00
2019-05-13T21:26:31.509Z,2.70
2019-05-13T21:29:01.873Z,2.23
2019-05-13T21:31:32.947Z,2.10
2019-05-13T21:34:02.043Z,1.93
2019-05-13T21:36:31.280Z,2.13
2019-05-13T21:39:01.653Z,2.60
2019-05-13T21:41:31.633Z,2.07
2019-05-13T21:44:01.984Z,2.60
2019-05-13T21:46:31.079Z,2.20
2019-05-13T21:49:01.116Z,2.10
2019-05-13T21:51:34.191Z,2.87
2019-05-13T21:54:04.170Z,2.10
2019-05-13T21:56:33.506Z,1.97
2019-05-13T21:59:03.099Z,2.10
2019-05-13T22:01:32.567Z,1.70
2019-05-13T22:04:01.858Z,1.93
2019-05-13T22:06:32.255Z,1.73
2019-05-13T22:09:02.000Z,1.63
2019-05-13T22:11:51.138Z,2.03
2019-05-13T22:14:31.774Z,1.90
2019-05-13T22:17:01.494Z,2.00
2019-05-13T22:19:32.050Z,2.20
2019-05-13T22:22:02.204Z,2.13
2019-05-13T22:24:31.700Z,1.80
2019-05-13T22:27:01.902Z,2.03
2019-05-13T22:29:32.078Z,1.93
2019-05-13T22:32:02.271Z,2.17
2019-05-13T22:34:31.887Z,2.37
2019-05-13T22:37:02.484Z,1.60
2019-05-13T22:39:34.614Z,1.93
2019-05-13T22:42:03.507Z,2.00
2019-05-13T22:44:34.214Z,1.90
2019-05-13T22:47:03.851Z,2.10
2019-05-13T22:49:33.439Z,2.10
2019-05-13T22:52:11.423Z,2.33
2019-05-13T22:54:44.588Z,2.47
2019-05-13T22:57:13.970Z,1.93
2019-05-13T22:59:44.958Z,1.93
2019-05-13T23:02:21.916Z,1.90
2019-05-13T23:07:36.498Z,2.57
2019-05-13T23:10:16.071Z,2.13
2019-05-13T23:12:45.689Z,2.00
2019-05-13T23:15:14.833Z,2.07
2019-05-13T23:17:44.741Z,1.50
2019-05-13T23:20:16.038Z,1.67
2019-05-13T23:25:15.918Z,1.50
2019-05-13T23:27:45.517Z,1.90
2019-05-13T23:30:14.612Z,1.97
2019-05-13T23:32:45.185Z,2.00
2019-05-13T23:38:04.254Z,1.93
2019-05-13T23:43:16.247Z,1.80
2019-05-13T23:45:45.834Z,1.80
2019-05-13T23:48:14.818Z,1.80
2019-05-13T23:50:43.716Z,2.00
2019-05-13T23:53:22.305Z,1.63
2019-05-13T23:55:52.218Z,1.67
2019-05-13T23:58:21.818Z,1.77
